Time,TemperatureF,DewpointF,PressureIn,WindDirection,WindDirectionDegrees,WindSpeedMPH,WindSpeedGustMPH,Humidity,HourlyPrecipIn,Conditions,Clouds,dailyrainin,SoftwareType,DateUTC
2013-03-11 00:03:00,48.6,44.0,29.68,SSE,165,2.0,3.0,84,0.00,,,0.00,weatherlink.com 1.10,2013-03-11 04:03:00,
2013-03-11 00:18:00,50.5,44.0,29.67,SSE,165,1.0,5.0,78,0.00,,,0.00,weatherlink.com 1.10,2013-03-11 04:18:00,
2013-03-11 00:33:00,51.6,44.0,29.67,SSE,165,2.0,4.0,74,0.00,,,0.00,weatherlink.com 1.10,2013-03-11 04:33:00,
2013-03-11 00:48:00,51.5,43.0,29.66,SSE,165,2.0,3.0,73,0.00,,,0.00,weatherlink.com 1.10,2013-03-11 04:48:00,
2013-03-11 01:03:00,51.9,43.0,29.66,SSE,165,1.0,3.0,71,0.00,,,0.00,weatherlink.com 1.10,2013-03-11 05:03:00,
2013-03-11 01:18:00,52.0,42.0,29.66,SSE,165,0.0,4.0,70,0.00,,,0.00,weatherlink.com 1.10,2013-03-11 05:18:00,
2013-03-11 01:33:00,51.6,42.0,29.67,SSE,165,1.0,3.0,71,0.00,,,0.00,weatherlink.com 1.10,2013-03-11 05:33:00,
2013-03-11 01:48:00,51.6,42.0,29.66,SSE,165,0.0,3.0,71,0.00,,,0.00,weatherlink.com 1.10,2013-03-11 05:48:00,
2013-03-11 02:03:00,51.1,42.0,29.66,SSE,165,0.0,0.0,71,0.00,,,0.00,weatherlink.com 1.10,2013-03-11 06:03:00,
2013-03-11 02:18:00,51.2,42.0,29.65,SSE,165,0.0,0.0,72,0.00,,,0.00,weatherlink.com 1.10,2013-03-11 06:18:00,
2013-03-11 02:33:00,50.8,42.0,29.64,SSE,165,0.0,0.0,72,0.00,,,0.00,weatherlink.com 1.10,2013-03-11 06:33:00,
2013-03-11 02:48:00,50.8,42.0,29.64,SSE,165,0.0,0.0,72,0.00,,,0.00,weatherlink.com 1.10,2013-03-11 06:48:00,
2013-03-11 03:03:00,50.4,42.0,29.64,SSE,165,0.0,0.0,72,0.00,,,0.00,weatherlink.com 1.10,2013-03-11 07:03:00,
2013-03-11 03:18:00,50.0,42.0,29.64,SSE,165,0.0,0.0,74,0.00,,,0.00,weatherlink.com 1.10,2013-03-11 07:18:00,
2013-03-11 03:33:00,49.5,42.0,29.64,SSE,165,0.0,0.0,75,0.00,,,0.00,weatherlink.com 1.10,2013-03-11 07:33:00,
2013-03-11 03:48:00,48.6,44.0,29.64,SSE,165,0.0,0.0,83,0.00,,,0.00,weatherlink.com 1.10,2013-03-11 07:48:00,
2013-03-11 04:03:00,47.7,45.0,29.62,SSE,165,0.0,0.0,89,0.00,,,0.00,weatherlink.com 1.10,2013-03-11 08:03:00,
2013-03-11 04:18:00,47.6,46.0,29.63,SSE,165,0.0,0.0,93,0.00,,,0.00,weatherlink.com 1.10,2013-03-11 08:18:00,
2013-03-11 04:33:00,47.7,46.0,29.62,SSE,165,0.0,0.0,94,0.00,,,0.00,weatherlink.com 1.10,2013-03-11 08:33:00,
2013-03-11 04:48:00,47.9,47.0,29.62,SSE,165,0.0,0.0,95,0.00,,,0.00,weatherlink.com 1.10,2013-03-11 08:48:00,
2013-03-11 05:03:00,47.9,47.0,29.61,SSE,165,0.0,1.0,95,0.00,,,0.00,weatherlink.com 1.10,2013-03-11 09:03:00,
2013-03-11 05:18:00,47.9,47.0,29.61,SSE,165,1.0,2.0,95,0.00,,,0.00,weatherlink.com 1.10,2013-03-11 09:18:00,
2013-03-11 05:33:00,47.4,46.0,29.61,SSE,165,0.0,0.0,95,0.00,,,0.00,weatherlink.com 1.10,2013-03-11 09:33:00,
2013-03-11 05:48:00,47.6,47.0,29.61,SSE,165,2.0,2.0,96,0.00,,,0.00,weatherlink.com 1.10,2013-03-11 09:48:00,
2013-03-11 06:03:00,47.5,47.0,29.60,SSE,165,0.0,0.0,96,0.00,,,0.00,weatherlink.com 1.10,2013-03-11 10:03:00,
2013-03-11 06:18:00,47.3,46.0,29.60,SSE,165,0.0,0.0,96,0.00,,,0.00,weatherlink.com 1.10,2013-03-11 10:18:00,
2013-03-11 06:33:00,47.3,46.0,29.60,SSE,165,0.0,2.0,96,0.00,,,0.00,weatherlink.com 1.10,2013-03-11 10:33:00,
2013-03-11 06:48:00,47.1,46.0,29.61,SSE,165,0.0,2.0,96,0.00,,,0.00,weatherlink.com 1.10,2013-03-11 10:48:00,
2013-03-11 07:03:00,47.3,46.0,29.61,SSE,165,0.0,2.0,96,0.00,,,0.00,weatherlink.com 1.10,2013-03-11 11:03:00,
2013-03-11 07:18:00,47.3,46.0,29.60,SSE,165,0.0,2.0,96,0.00,,,0.00,weatherlink.com 1.10,2013-03-11 11:18:00,
2013-03-11 07:33:00,47.1,46.0,29.58,SSE,165,0.0,1.0,97,0.00,,,0.00,weatherlink.com 1.10,2013-03-11 11:33:00,
2013-03-11 07:48:00,46.9,46.0,29.61,SSE,165,0.0,0.0,97,0.00,,,0.00,weatherlink.com 1.10,2013-03-11 11:48:00,
2013-03-11 08:03:00,46.8,46.0,29.62,SSE,165,0.0,1.0,97,0.00,,,0.00,weatherlink.com 1.10,2013-03-11 12:03:00,
2013-03-11 08:18:00,46.6,46.0,29.62,SSE,165,0.0,0.0,97,0.00,,,0.00,weatherlink.com 1.10,2013-03-11 12:18:00,
2013-03-11 08:33:00,46.7,46.0,29.61,SSE,165,0.0,0.0,97,0.00,,,0.00,weatherlink.com 1.10,2013-03-11 12:33:00,
2013-03-11 08:48:00,46.5,46.0,29.61,SSE,165,0.0,0.0,97,0.00,,,0.00,weatherlink.com 1.10,2013-03-11 12:48:00,
2013-03-11 09:03:00,46.5,46.0,29.60,SSE,165,0.0,0.0,97,0.00,,,0.00,weatherlink.com 1.10,2013-03-11 13:03:00,
2013-03-11 09:18:00,46.7,46.0,29.61,SSE,165,0.0,0.0,97,0.00,,,0.00,weatherlink.com 1.10,2013-03-11 13:18:00,
2013-03-11 09:33:00,46.8,46.0,29.61,SSE,165,0.0,0.0,97,0.00,,,0.00,weatherlink.com 1.10,2013-03-11 13:33:00,
2013-03-11 09:48:00,47.0,46.0,29.61,SSE,165,0.0,0.0,97,0.00,,,0.00,weatherlink.com 1.10,2013-03-11 13:48:00,
2013-03-11 10:03:00,47.6,47.0,29.59,SSE,165,0.0,0.0,97,0.00,,,0.00,weatherlink.com 1.10,2013-03-11 14:03:00,
2013-03-11 10:18:00,48.0,47.0,29.59,SSE,165,0.0,2.0,97,0.00,,,0.00,weatherlink.com 1.10,2013-03-11 14:18:00,
2013-03-11 10:33:00,48.3,48.0,29.59,SSE,165,0.0,3.0,97,0.00,,,0.00,weatherlink.com 1.10,2013-03-11 14:33:00,
2013-03-11 10:48:00,48.5,48.0,29.58,SSE,165,0.0,0.0,97,0.00,,,0.00,weatherlink.com 1.10,2013-03-11 14:48:00,
2013-03-11 11:04:00,48.9,48.0,29.57,SSE,165,4.0,4.0,97,0.00,,,0.00,weatherlink.com 1.10,2013-03-11 15:04:00,
2013-03-11 11:19:00,49.2,48.0,29.57,SSE,165,0.0,1.0,96,0.00,,,0.00,weatherlink.com 1.10,2013-03-11 15:19:00,
2013-03-11 11:34:00,49.3,48.0,29.56,SSE,165,1.0,2.0,94,0.00,,,0.00,weatherlink.com 1.10,2013-03-11 15:34:00,
2013-03-11 11:49:00,49.8,48.0,29.55,SSE,165,1.0,3.0,92,0.00,,,0.00,weatherlink.com 1.10,2013-03-11 15:49:00,
2013-03-11 12:04:00,50.1,47.0,29.54,SSE,165,1.0,1.0,90,0.00,,,0.00,weatherlink.com 1.10,2013-03-11 16:04:00,
2013-03-11 12:19:00,50.4,48.0,29.52,SSE,165,0.0,3.0,90,0.00,,,0.00,weatherlink.com 1.10,2013-03-11 16:19:00,
2013-03-11 12:34:00,50.3,48.0,29.52,SSE,165,1.0,2.0,90,0.00,,,0.00,weatherlink.com 1.10,2013-03-11 16:34:00,
2013-03-11 12:49:00,50.4,48.0,29.52,SSE,165,0.0,3.0,90,0.00,,,0.00,weatherlink.com 1.10,2013-03-11 16:49:00,
2013-03-11 13:04:00,50.3,47.0,29.51,SSE,165,1.0,3.0,89,0.00,,,0.00,weatherlink.com 1.10,2013-03-11 17:04:00,
2013-03-11 13:19:00,50.0,47.0,29.51,SSE,165,0.0,2.0,90,0.00,,,0.00,weatherlink.com 1.10,2013-03-11 17:19:00,
2013-03-11 13:34:00,50.1,48.0,29.50,SSE,165,1.0,4.0,91,0.00,,,0.00,weatherlink.com 1.10,2013-03-11 17:34:00,
2013-03-11 13:49:00,49.9,47.0,29.49,SSE,165,0.0,2.0,91,0.00,,,0.00,weatherlink.com 1.10,2013-03-11 17:49:00,
2013-03-11 14:04:00,50.2,48.0,29.48,SSE,165,2.0,3.0,91,0.00,,,0.00,weatherlink.com 1.10,2013-03-11 18:04:00,
2013-03-11 14:19:00,50.3,48.0,29.47,SSE,165,1.0,2.0,93,0.00,,,0.00,weatherlink.com 1.10,2013-03-11 18:19:00,
2013-03-11 14:34:00,50.0,48.0,29.47,SSE,165,0.0,0.0,92,0.00,,,0.00,weatherlink.com 1.10,2013-03-11 18:34:00,
2013-03-11 14:49:00,47.3,44.0,29.46,NW,316,7.0,8.0,89,0.00,,,0.00,weatherlink.com 1.10,2013-03-11 18:49:00,
2013-03-11 15:04:00,45.3,43.0,29.46,NW,312,4.0,6.0,90,0.00,,,0.00,weatherlink.com 1.10,2013-03-11 19:04:00,
2013-03-11 15:19:00,45.0,43.0,29.46,West,281,0.0,5.0,91,0.00,,,0.00,weatherlink.com 1.10,2013-03-11 19:19:00,
2013-03-11 15:34:00,44.8,42.0,29.45,WNW,302,0.0,0.0,90,0.00,,,0.00,weatherlink.com 1.10,2013-03-11 19:34:00,
2013-03-11 15:49:00,45.0,42.0,29.45,West,276,1.0,4.0,90,0.00,,,0.00,weatherlink.com 1.10,2013-03-11 19:49:00,
2013-03-11 16:04:00,45.2,42.0,29.44,SSE,165,1.0,4.0,88,0.00,,,0.00,weatherlink.com 1.10,2013-03-11 20:04:00,
2013-03-11 16:19:00,44.7,41.0,29.46,SSW,193,2.0,5.0,87,0.00,,,0.00,weatherlink.com 1.10,2013-03-11 20:19:00,
2013-03-11 16:34:00,43.7,40.0,29.46,WSW,237,1.0,5.0,88,0.00,,,0.00,weatherlink.com 1.10,2013-03-11 20:34:00,
2013-03-11 16:49:00,43.1,40.0,29.48,SSE,165,2.0,5.0,89,0.00,,,0.00,weatherlink.com 1.10,2013-03-11 20:49:00,
2013-03-11 17:04:00,42.1,39.0,29.49,SSE,165,0.0,3.0,90,0.00,,,0.00,weatherlink.com 1.10,2013-03-11 21:04:00,
2013-03-11 17:19:00,41.2,38.0,29.49,SSE,165,1.0,6.0,89,0.00,,,0.00,weatherlink.com 1.10,2013-03-11 21:19:00,
2013-03-11 17:34:00,40.7,38.0,29.49,WSW,246,0.0,4.0,90,0.03,,,0.03,weatherlink.com 1.10,2013-03-11 21:34:00,
2013-03-11 17:49:00,40.4,38.0,29.50,WNW,302,2.0,9.0,89,0.03,,,0.03,weatherlink.com 1.10,2013-03-11 21:49:00,
2013-03-11 18:04:00,39.8,37.0,29.51,NW,304,2.0,5.0,90,0.03,,,0.03,weatherlink.com 1.10,2013-03-11 22:04:00,
2013-03-11 18:19:00,39.5,37.0,29.52,West,266,1.0,5.0,89,0.03,,,0.03,weatherlink.com 1.10,2013-03-11 22:19:00,
2013-03-11 18:35:00,38.7,36.0,29.53,WNW,294,1.0,5.0,91,0.00,,,0.03,weatherlink.com 1.10,2013-03-11 22:35:00,
2013-03-11 18:50:00,38.0,36.0,29.54,WNW,285,1.0,4.0,92,0.00,,,0.03,weatherlink.com 1.10,2013-03-11 22:50:00,
2013-03-11 19:05:00,37.5,35.0,29.54,SW,214,3.0,7.0,91,0.00,,,0.03,weatherlink.com 1.10,2013-03-11 23:05:00,
2013-03-11 19:20:00,37.1,35.0,29.54,SW,221,1.0,5.0,91,0.00,,,0.03,weatherlink.com 1.10,2013-03-11 23:20:00,
2013-03-11 19:35:00,36.8,35.0,29.54,WSW,239,3.0,4.0,91,0.00,,,0.03,weatherlink.com 1.10,2013-03-11 23:35:00,
2013-03-11 19:50:00,36.7,34.0,29.54,West,281,0.0,5.0,91,0.00,,,0.03,weatherlink.com 1.10,2013-03-11 23:50:00,
2013-03-11 20:05:00,36.6,34.0,29.54,SSW,203,1.0,4.0,91,0.00,,,0.03,weatherlink.com 1.10,2013-03-12 00:05:00,
2013-03-11 20:20:00,36.5,34.0,29.54,South,188,1.0,5.0,91,0.00,,,0.03,weatherlink.com 1.10,2013-03-12 00:20:00,
2013-03-11 20:35:00,36.4,34.0,29.55,SW,225,0.0,8.0,91,0.00,,,0.03,weatherlink.com 1.10,2013-03-12 00:35:00,
2013-03-11 20:50:00,36.3,34.0,29.55,WSW,238,2.0,6.0,91,0.00,,,0.03,weatherlink.com 1.10,2013-03-12 00:50:00,
2013-03-11 21:05:00,36.3,34.0,29.55,WNW,294,1.0,4.0,90,0.00,,,0.03,weatherlink.com 1.10,2013-03-12 01:05:00,
2013-03-11 21:20:00,36.1,34.0,29.56,WNW,293,1.0,6.0,91,0.00,,,0.03,weatherlink.com 1.10,2013-03-12 01:20:00,
2013-03-11 21:35:00,35.9,34.0,29.56,WNW,302,1.0,6.0,91,0.00,,,0.03,weatherlink.com 1.10,2013-03-12 01:35:00,
2013-03-11 21:50:00,35.8,34.0,29.57,NW,314,0.0,7.0,92,0.00,,,0.03,weatherlink.com 1.10,2013-03-12 01:50:00,
2013-03-11 22:05:00,35.4,34.0,29.58,SW,214,1.0,6.0,93,0.00,,,0.03,weatherlink.com 1.10,2013-03-12 02:05:00,
2013-03-11 22:20:00,35.1,33.0,29.59,NNW,346,1.0,7.0,93,0.00,,,0.03,weatherlink.com 1.10,2013-03-12 02:20:00,
2013-03-11 22:35:00,35.1,33.0,29.60,NW,316,5.0,6.0,93,0.00,,,0.03,weatherlink.com 1.10,2013-03-12 02:35:00,
2013-03-11 22:50:00,34.9,33.0,29.61,WNW,297,2.0,4.0,94,0.00,,,0.03,weatherlink.com 1.10,2013-03-12 02:50:00,
2013-03-11 23:05:00,34.8,33.0,29.61,WNW,285,3.0,6.0,94,0.00,,,0.03,weatherlink.com 1.10,2013-03-12 03:05:00,
2013-03-11 23:20:00,34.7,33.0,29.61,WNW,298,2.0,5.0,94,0.00,,,0.03,weatherlink.com 1.10,2013-03-12 03:20:00,
2013-03-11 23:50:00,34.7,33.0,29.63,WNW,290,3.0,5.0,94,0.00,,,0.03,weatherlink.com 1.10,2013-03-12 03:50:00,